Terminal Aerodrome Forecast
Issued by NWS Honolulu, HI

Home | Current Version | Previous Version | Text Only | Print | Product List | Glossary On
Versions: 1 2 3 4 5 6 7 8 9 10 11 12 13 14 15 16 17 18 19 20 21 22 23 24 25 26 27 28 29 30
000
FTPA31 PHFO 121740
TAFHNL
TAF
PHNL 121740Z 1218/1324 24011KT P6SM VCSH SCT025 BKN050
     FM121900 25011KT P6SM -SHRA SCT025 BKN045
      TEMPO 1221/1223 3SM SHRA BR BKN025
     FM130000 32012KT P6SM VCSH SCT025 BKN040
     FM130500 32007KT P6SM FEW025 SCT040
     FM132000 01015G25KT P6SM FEW030 FEW050=

USA.gov is the U.S. government's official web portal to all federal, state and local government web resources and services.